createdAt,value
2022-12-16T07:49:57.056Z,99104.78
2022-12-16T07:51:49.504Z,99094.41
2022-12-16T07:53:40.922Z,99107.53
2022-12-16T07:55:31.690Z,99109.41
2022-12-16T07:57:23.144Z,99114.50
2022-12-16T07:59:14.711Z,99114.41
2022-12-16T08:01:09.409Z,99123.00
2022-12-16T08:03:01.394Z,99121.13
2022-12-16T08:04:51.959Z,99117.53
2022-12-16T08:06:42.634Z,99115.56
2022-12-16T08:08:34.944Z,99106.63
2022-12-16T08:10:26.228Z,99108.16
2022-12-16T08:12:16.552Z,99116.72
2022-12-16T08:14:07.227Z,99110.38
2022-12-16T08:15:57.775Z,99118.00
2022-12-16T08:17:48.369Z,99116.75
2022-12-16T08:19:38.895Z,99105.06
2022-12-16T08:21:29.530Z,99095.16
2022-12-16T08:23:19.602Z,99090.44
2022-12-16T08:25:11.995Z,99088.34
2022-12-16T08:27:02.957Z,99091.44
2022-12-16T08:28:53.792Z,99096.28
2022-12-16T08:30:40.887Z,99085.41
2022-12-16T08:32:31.663Z,99086.63
2022-12-16T08:34:22.532Z,99089.47
2022-12-16T08:36:16.515Z,99099.44
2022-12-16T08:38:12.181Z,99087.19
2022-12-16T08:40:33.810Z,99099.91
2022-12-16T08:42:17.913Z,99080.50
2022-12-16T08:44:08.711Z,99073.25
2022-12-16T08:45:59.658Z,99073.44
2022-12-16T08:47:50.471Z,99078.41
2022-12-16T08:49:41.538Z,99077.72
2022-12-16T08:51:32.228Z,99068.19
2022-12-16T08:53:22.863Z,99065.44
2022-12-16T08:55:13.699Z,99058.34
2022-12-16T08:57:04.569Z,99046.84
2022-12-16T08:58:56.456Z,99049.19
2022-12-16T09:00:47.160Z,99057.13
2022-12-16T09:02:38.046Z,99061.53
2022-12-16T09:04:28.948Z,99054.28
2022-12-16T09:06:19.655Z,99035.53
2022-12-16T09:08:10.666Z,99035.03
2022-12-16T09:10:01.126Z,99047.56
2022-12-16T09:11:51.693Z,99041.03
2022-12-16T09:13:42.656Z,99050.03
2022-12-16T09:15:34.730Z,99030.81
2022-12-16T09:17:25.399Z,99036.59
2022-12-16T09:19:16.162Z,99021.28
2022-12-16T09:21:07.151Z,99021.09
2022-12-16T09:22:58.300Z,99019.06
2022-12-16T09:24:48.726Z,99017.91
2022-12-16T09:26:41.900Z,99015.31
2022-12-16T09:28:32.687Z,99010.25
2022-12-16T09:30:24.070Z,99011.31
2022-12-16T09:32:15.866Z,99014.59
2022-12-16T09:34:06.675Z,99015.31
2022-12-16T09:35:57.117Z,99015.50
2022-12-16T09:37:48.774Z,99022.66
2022-12-16T09:39:39.564Z,99024.09
2022-12-16T09:41:47.035Z,99017.03
2022-12-16T09:44:02.430Z,99006.44
2022-12-16T09:46:03.195Z,99014.00
2022-12-16T09:48:03.755Z,98996.13
2022-12-16T09:50:04.452Z,98989.16
2022-12-16T09:51:58.720Z,98993.28
2022-12-16T09:53:55.328Z,98988.72
2022-12-16T09:55:51.194Z,98999.25
2022-12-16T09:57:45.273Z,98996.13
2022-12-16T09:59:44.190Z,98991.88
2022-12-16T10:01:35.540Z,98991.13
2022-12-16T10:03:43.673Z,98989.72
2022-12-16T10:05:43.184Z,98990.22
2022-12-16T10:07:38.036Z,98988.72
2022-12-16T10:09:38.835Z,98985.81
2022-12-16T10:11:39.969Z,98984.28
2022-12-16T10:13:41.170Z,98960.44
2022-12-16T10:15:45.501Z,98967.22
2022-12-16T10:17:43.232Z,98957.47
2022-12-16T10:19:54.003Z,98972.28
2022-12-16T10:21:53.257Z,98976.28
2022-12-16T10:23:48.985Z,98978.16
2022-12-16T10:25:42.430Z,98967.81
2022-12-16T10:27:40.902Z,98971.72
2022-12-16T10:29:37.452Z,98967.63
2022-12-16T10:31:33.971Z,98957.41
2022-12-16T10:33:29.350Z,98965.59
2022-12-16T10:35:35.733Z,98957.22
2022-12-16T10:37:33.791Z,98952.09
2022-12-16T10:39:37.955Z,98934.03
2022-12-16T10:41:45.293Z,98942.44
2022-12-16T10:43:41.766Z,98925.25
2022-12-16T10:45:54.245Z,98931.72
2022-12-16T10:47:45.878Z,98937.22
2022-12-16T10:49:36.774Z,98918.28
2022-12-16T10:51:32.562Z,98920.44
2022-12-16T10:53:30.820Z,98930.47
2022-12-16T10:55:31.698Z,98929.19
2022-12-16T10:57:43.611Z,98923.28
2022-12-16T10:59:34.164Z,98915.63
2022-12-16T11:01:41.821Z,98920.84
2022-12-16T11:03:38.317Z,98918.59
2022-12-16T11:05:49.107Z,98917.13
2022-12-16T11:07:49.121Z,98885.31
2022-12-16T11:09:43.998Z,98916.25
2022-12-16T11:11:57.548Z,98914.06
2022-12-16T11:13:50.279Z,98922.38
2022-12-16T11:15:44.289Z,98914.75
2022-12-16T11:17:38.798Z,98903.22
2022-12-16T11:19:38.638Z,98897.16
2022-12-16T11:21:32.831Z,98898.22
2022-12-16T11:23:39.731Z,98895.13
2022-12-16T11:25:35.499Z,98900.66
2022-12-16T11:27:33.528Z,98886.75
2022-12-16T11:29:32.002Z,98883.38
2022-12-16T11:31:26.443Z,98882.84
2022-12-16T11:33:23.872Z,98894.50
2022-12-16T11:35:18.196Z,98878.19
2022-12-16T11:37:11.305Z,98873.97
2022-12-16T11:39:06.196Z,98879.84
2022-12-16T11:40:57.374Z,98869.56
2022-12-16T11:42:51.729Z,98870.84
2022-12-16T11:44:49.108Z,98864.94
2022-12-16T11:46:44.867Z,98864.47
2022-12-16T11:48:48.361Z,98866.09
2022-12-16T11:50:41.189Z,98860.09
2022-12-16T11:52:37.517Z,98862.50
2022-12-16T11:54:36.081Z,98865.13
2022-12-16T11:56:40.099Z,98866.22
2022-12-16T11:58:37.723Z,98865.59
2022-12-16T12:00:33.498Z,98858.78
2022-12-16T12:02:32.946Z,98861.81
2022-12-16T12:04:24.089Z,98867.16
2022-12-16T12:06:22.616Z,98867.72
2022-12-16T12:08:19.461Z,98879.25
2022-12-16T12:10:18.675Z,98877.72
2022-12-16T12:12:14.345Z,98874.53
2022-12-16T12:14:17.089Z,98868.41
2022-12-16T12:16:14.685Z,98867.19
2022-12-16T12:18:11.483Z,98869.28
2022-12-16T12:20:15.541Z,98869.09
2022-12-16T12:22:11.910Z,98873.31
2022-12-16T12:24:14.148Z,98875.22
2022-12-16T12:26:12.765Z,98879.75
2022-12-16T12:28:11.591Z,98882.78
2022-12-16T12:30:16.860Z,98875.75
2022-12-16T12:32:17.078Z,98875.69
2022-12-16T12:34:20.766Z,98875.59
2022-12-16T12:36:20.316Z,98883.38
2022-12-16T12:38:17.264Z,98874.25
2022-12-16T12:40:14.814Z,98867.00
2022-12-16T12:42:25.511Z,98860.81
2022-12-16T12:44:36.443Z,98857.09
2022-12-16T12:46:43.247Z,98868.53
2022-12-16T12:48:41.511Z,98858.63
2022-12-16T12:50:39.329Z,98859.38
2022-12-16T12:52:45.403Z,98873.44
2022-12-16T12:54:46.109Z,98862.78
2022-12-16T12:56:46.627Z,98864.50
2022-12-16T12:58:40.137Z,98873.44
2022-12-16T13:00:36.153Z,98861.09
2022-12-16T13:02:32.231Z,98854.34
2022-12-16T13:04:28.827Z,98863.31
2022-12-16T13:06:20.969Z,98872.53
2022-12-16T13:08:11.810Z,98862.53
2022-12-16T13:10:03.601Z,98866.81
2022-12-16T13:11:54.793Z,98866.63
2022-12-16T13:13:55.589Z,98871.75
2022-12-16T13:15:54.253Z,98872.63
2022-12-16T13:17:44.902Z,98882.41
2022-12-16T13:20:17.633Z,98885.19
2022-12-16T13:22:09.510Z,98880.91
2022-12-16T13:24:01.343Z,98882.97
2022-12-16T13:26:03.517Z,98878.06
2022-12-16T13:28:28.194Z,98879.94
2022-12-16T13:30:36.004Z,98878.53
2022-12-16T13:32:37.536Z,98869.69
2022-12-16T13:34:42.399Z,98880.34
2022-12-16T13:36:35.476Z,98882.06
2022-12-16T13:38:40.140Z,98880.34
2022-12-16T13:40:36.393Z,98873.28
2022-12-16T13:43:00.483Z,98878.72
2022-12-16T13:45:17.052Z,98870.06
2022-12-16T13:47:11.049Z,98871.97
2022-12-16T13:49:01.607Z,98870.44
2022-12-16T13:50:58.053Z,98868.75
2022-12-16T13:52:59.346Z,98865.47
2022-12-16T13:54:55.561Z,98865.19
2022-12-16T13:56:53.224Z,98872.31
2022-12-16T13:58:54.076Z,98861.09
2022-12-16T14:00:47.435Z,98878.97
2022-12-16T14:02:49.914Z,98870.44
2022-12-16T14:04:42.793Z,98879.38
2022-12-16T14:06:37.420Z,98883.34
2022-12-16T14:08:35.378Z,98887.16
2022-12-16T14:10:42.613Z,98886.47
2022-12-16T14:12:49.584Z,98893.03
2022-12-16T14:14:54.739Z,98886.34
2022-12-16T14:16:55.996Z,98891.84
2022-12-16T14:18:59.741Z,98894.50
2022-12-16T14:20:57.997Z,98894.19
2022-12-16T14:23:06.418Z,98895.97
2022-12-16T14:24:57.772Z,98890.91
2022-12-16T14:26:51.627Z,98888.53
2022-12-16T14:28:51.176Z,98885.13
2022-12-16T14:30:44.099Z,98891.72
2022-12-16T14:32:39.982Z,98890.78
2022-12-16T14:34:37.007Z,98882.72
2022-12-16T14:36:38.788Z,98891.06
2022-12-16T14:38:40.611Z,98892.50
2022-12-16T14:40:39.039Z,98891.94
2022-12-16T14:42:43.068Z,98888.66
2022-12-16T14:44:36.768Z,98891.84
2022-12-16T14:46:43.579Z,98892.53
2022-12-16T14:48:49.209Z,98887.22
2022-12-16T14:50:46.404Z,98891.16
2022-12-16T14:52:50.470Z,98889.78
2022-12-16T14:54:44.801Z,98897.91
2022-12-16T14:56:38.205Z,98901.75
2022-12-16T14:58:31.238Z,98897.72
2022-12-16T15:00:30.883Z,98898.75
2022-12-16T15:02:34.737Z,98893.31
2022-12-16T15:04:34.166Z,98898.28
2022-12-16T15:06:38.547Z,98899.53
2022-12-16T15:08:31.046Z,98906.81
2022-12-16T15:10:23.113Z,98909.78
2022-12-16T15:12:15.122Z,98910.72
2022-12-16T15:14:09.325Z,98905.09
2022-12-16T15:16:04.070Z,98904.28
2022-12-16T15:18:03.203Z,98906.50
2022-12-16T15:20:03.548Z,98914.88
2022-12-16T15:21:56.432Z,98916.78
2022-12-16T15:23:50.137Z,98907.28
2022-12-16T15:25:43.642Z,98912.88
2022-12-16T15:27:43.055Z,98909.63
2022-12-16T15:29:47.812Z,98921.31
2022-12-16T15:31:43.511Z,98920.69
2022-12-16T15:33:36.771Z,98924.44
2022-12-16T15:35:27.888Z,98923.88
2022-12-16T15:37:19.954Z,98925.03
2022-12-16T15:39:10.886Z,98920.19
2022-12-16T15:41:09.839Z,98933.66
2022-12-16T15:43:01.175Z,98932.97
2022-12-16T15:44:52.013Z,98943.72
2022-12-16T15:46:45.351Z,98935.91
2022-12-16T15:48:40.243Z,98944.13
2022-12-16T15:50:33.044Z,98946.03
2022-12-16T15:52:55.224Z,98946.16
2022-12-16T15:54:54.205Z,98937.25
2022-12-16T15:56:46.676Z,98938.28
2022-12-16T15:58:45.384Z,98951.31
2022-12-16T16:00:40.835Z,98948.19
2022-12-16T16:02:38.566Z,98937.56
2022-12-16T16:04:40.261Z,98951.91
2022-12-16T16:06:37.595Z,98959.06
2022-12-16T16:08:29.844Z,98949.03
2022-12-16T16:10:33.759Z,98941.38
2022-12-16T16:12:24.395Z,98951.06
2022-12-16T16:14:15.300Z,98956.34
2022-12-16T16:16:06.611Z,98961.03
2022-12-16T16:17:57.391Z,98949.75
2022-12-16T16:19:48.150Z,98951.56
2022-12-16T16:21:39.178Z,98954.16
2022-12-16T16:23:31.861Z,98948.88
2022-12-16T16:25:23.962Z,98964.09
2022-12-16T16:27:18.070Z,98970.41
2022-12-16T16:29:08.630Z,98965.22
2022-12-16T16:30:59.657Z,98966.00
2022-12-16T16:32:52.741Z,98964.28
2022-12-16T16:34:43.255Z,98971.47
2022-12-16T16:36:34.612Z,98969.84
2022-12-16T16:38:25.274Z,98965.38
2022-12-16T16:40:18.403Z,98964.56
2022-12-16T16:42:09.156Z,98970.78
2022-12-16T16:43:59.887Z,98986.69
2022-12-16T16:45:50.610Z,98984.03
2022-12-16T16:47:41.193Z,98966.44
2022-12-16T16:49:37.426Z,98964.06
2022-12-16T16:51:28.294Z,98968.63
2022-12-16T16:53:19.128Z,98975.06
2022-12-16T16:55:09.689Z,98968.25
2022-12-16T16:57:01.607Z,98963.22
2022-12-16T16:58:53.046Z,98971.50
2022-12-16T17:00:43.750Z,98968.06
2022-12-16T17:02:41.188Z,98951.47
2022-12-16T17:04:32.548Z,98960.25
2022-12-16T17:06:23.720Z,98971.88
2022-12-16T17:08:15.508Z,98968.47
2022-12-16T17:10:06.615Z,98965.00
2022-12-16T17:11:58.116Z,98956.16
2022-12-16T17:13:50.184Z,98973.88
2022-12-16T17:15:39.652Z,98964.56
2022-12-16T17:17:30.221Z,98976.91
2022-12-16T17:19:24.808Z,98972.84
2022-12-16T17:21:15.330Z,98982.00
2022-12-16T17:23:05.872Z,98976.91
2022-12-16T17:24:56.237Z,98963.03
2022-12-16T17:26:47.047Z,98967.56
2022-12-16T17:28:38.017Z,98982.94
2022-12-16T17:30:34.803Z,98975.81
2022-12-16T17:32:37.817Z,98965.38
2022-12-16T17:34:28.521Z,98966.44
2022-12-16T17:36:19.114Z,98965.38
2022-12-16T17:38:10.278Z,98961.31
2022-12-16T17:40:06.485Z,98974.66
2022-12-16T17:41:57.128Z,98978.94
2022-12-16T17:43:47.620Z,98983.34
2022-12-16T17:45:39.635Z,98979.88
2022-12-16T17:47:31.482Z,98985.16
2022-12-16T17:49:22.049Z,98981.59
2022-12-16T17:51:13.198Z,98969.44
2022-12-16T17:53:12.338Z,98976.56
2022-12-16T17:55:03.890Z,98962.53
2022-12-16T17:56:54.897Z,98976.69
2022-12-16T17:58:54.656Z,98968.75
2022-12-16T18:00:46.622Z,98954.19
2022-12-16T18:02:40.273Z,98960.41
2022-12-16T18:04:30.816Z,98948.38
2022-12-16T18:06:21.343Z,98949.50
2022-12-16T18:08:11.703Z,98959.28
2022-12-16T18:10:02.365Z,98968.91
2022-12-16T18:11:55.408Z,98965.34
2022-12-16T18:13:46.334Z,98968.91
2022-12-16T18:15:36.770Z,98963.97
2022-12-16T18:17:28.807Z,98959.50
2022-12-16T18:19:19.167Z,98967.47
2022-12-16T18:21:10.313Z,98981.06
2022-12-16T18:23:00.991Z,98974.91
2022-12-16T18:24:51.387Z,98974.91
2022-12-16T18:26:42.008Z,98962.56
2022-12-16T18:28:32.998Z,98963.34
2022-12-16T18:30:24.936Z,98961.66
2022-12-16T18:32:16.080Z,98957.28
2022-12-16T18:34:07.965Z,98951.97
2022-12-16T18:35:58.565Z,98946.69
2022-12-16T18:37:49.783Z,98943.38
2022-12-16T18:39:40.666Z,98952.19
2022-12-16T18:41:34.408Z,98947.00
2022-12-16T18:43:24.918Z,98946.22
2022-12-16T18:45:15.627Z,98954.00
2022-12-16T18:47:06.803Z,98957.56
2022-12-16T18:48:57.826Z,98968.34
2022-12-16T18:50:49.674Z,98951.78
2022-12-16T18:52:40.657Z,98947.72
2022-12-16T18:54:27.648Z,98934.19
2022-12-16T18:56:19.606Z,98935.16
2022-12-16T18:58:21.103Z,98932.72
2022-12-16T19:00:18.251Z,98944.88
2022-12-16T19:02:09.252Z,98946.69
2022-12-16T19:03:59.846Z,98953.69
2022-12-16T19:05:51.983Z,98952.31
2022-12-16T19:07:42.752Z,98954.03
2022-12-16T19:09:33.254Z,98963.09
2022-12-16T19:11:23.714Z,98965.94
2022-12-16T19:13:15.022Z,98960.31
2022-12-16T19:15:05.826Z,98965.47
2022-12-16T19:16:56.689Z,98959.41
2022-12-16T19:18:47.317Z,98957.69
2022-12-16T19:20:38.106Z,98967.53
2022-12-16T19:22:30.385Z,98969.41
2022-12-16T19:24:21.006Z,98967.97
2022-12-16T19:26:15.274Z,98973.53
2022-12-16T19:28:05.990Z,98969.47
2022-12-16T19:29:56.662Z,98979.22
2022-12-16T19:31:47.739Z,98972.56
2022-12-16T19:33:38.281Z,98974.69
2022-12-16T19:35:28.858Z,98972.16
2022-12-16T19:37:19.504Z,98973.03
2022-12-16T19:39:12.014Z,98974.00
2022-12-16T19:41:09.616Z,98987.91
2022-12-16T19:43:00.302Z,98978.31
2022-12-16T19:44:50.985Z,98976.69
2022-12-16T19:46:42.407Z,98978.53
2022-12-16T19:48:33.579Z,98987.44
2022-12-16T19:50:24.891Z,98984.78
2022-12-16T19:52:15.458Z,99004.97
2022-12-16T19:54:06.847Z,98991.09
2022-12-16T19:55:58.920Z,98993.00
2022-12-16T19:57:49.267Z,98996.53
2022-12-16T19:59:39.922Z,98984.31
2022-12-16T20:01:30.765Z,98996.53
2022-12-16T20:03:21.440Z,98993.06
2022-12-16T20:05:12.547Z,98998.31
2022-12-16T20:07:03.118Z,98987.78
2022-12-16T20:08:53.508Z,98995.69
2022-12-16T20:10:45.536Z,98992.38
2022-12-16T20:12:37.661Z,99004.81
2022-12-16T20:14:28.149Z,99007.34
2022-12-16T20:16:22.959Z,99012.72
2022-12-16T20:18:25.071Z,99004.75
2022-12-16T20:20:15.771Z,98999.97
2022-12-16T20:24:16.884Z,98988.66
2022-12-16T20:26:13.153Z,98990.50
2022-12-16T20:28:05.222Z,99000.09
2022-12-16T20:29:56.466Z,99001.81
2022-12-16T20:31:47.861Z,99002.91
2022-12-16T20:33:38.771Z,99004.75
2022-12-16T20:35:29.340Z,98992.59
2022-12-16T20:37:20.600Z,98993.75
2022-12-16T20:39:11.527Z,98985.03
2022-12-16T20:41:02.187Z,98988.59
2022-12-16T20:42:53.512Z,98983.31
2022-12-16T20:44:45.698Z,98993.22
2022-12-16T20:46:35.992Z,98987.88
2022-12-16T20:48:31.450Z,99003.66
2022-12-16T20:50:22.267Z,99001.25
2022-12-16T20:52:12.747Z,98996.88
2022-12-16T20:54:06.022Z,99002.81
2022-12-16T20:55:56.806Z,99010.81
2022-12-16T20:57:47.406Z,99005.53
2022-12-16T20:59:37.999Z,99001.13
2022-12-16T21:01:30.063Z,99003.91
2022-12-16T21:03:20.720Z,99003.28
2022-12-16T21:05:26.172Z,99003.50
2022-12-16T21:07:16.908Z,99001.81
2022-12-16T21:09:07.254Z,99001.91
2022-12-16T21:10:57.726Z,98997.53
2022-12-16T21:12:48.143Z,99006.34
2022-12-16T21:14:38.689Z,99010.16
2022-12-16T21:14:42.341Z,99000.91
2022-12-16T21:16:31.022Z,99002.38
2022-12-16T21:18:21.609Z,98997.97
2022-12-16T21:20:12.119Z,98999.88
2022-12-16T21:22:02.938Z,99005.28
2022-12-16T21:23:53.795Z,99002.69
2022-12-16T21:26:01.698Z,99012.44
2022-12-16T21:27:52.182Z,99011.59
2022-12-16T21:29:42.660Z,98995.19
2022-12-16T21:31:34.500Z,99026.75
2022-12-16T21:33:25.103Z,99023.25
2022-12-16T21:35:16.116Z,99028.44
2022-12-16T21:37:08.160Z,99024.03
2022-12-16T21:38:59.850Z,99005.88
2022-12-16T21:40:50.744Z,99025.06
2022-12-16T21:42:44.093Z,99028.44
2022-12-16T21:44:34.676Z,99025.00
2022-12-16T21:46:25.039Z,99015.44
2022-12-16T21:48:17.207Z,99014.72
2022-12-16T21:50:07.646Z,99002.75
2022-12-16T21:51:58.855Z,99008.13
2022-12-16T21:53:49.863Z,99013.34
2022-12-16T21:55:40.230Z,99009.84
2022-12-16T21:57:30.718Z,99009.84
2022-12-16T21:59:21.902Z,99006.56
2022-12-16T22:01:13.089Z,98996.38
2022-12-16T22:03:03.974Z,98997.44
2022-12-16T22:04:56.775Z,99009.66
2022-12-16T22:06:49.027Z,99021.03
2022-12-16T22:08:40.057Z,98994.78
2022-12-16T22:10:31.002Z,99015.88
2022-12-16T22:12:21.612Z,99016.81
2022-12-16T22:14:12.041Z,99009.84
2022-12-16T22:16:05.014Z,99003.50
2022-12-16T22:17:58.670Z,98996.47
2022-12-16T22:19:49.822Z,98992.84
2022-12-16T22:21:41.962Z,98984.16
2022-12-16T22:23:32.572Z,99012.06
2022-12-16T22:25:24.074Z,99015.59
2022-12-16T22:27:15.129Z,98998.16
2022-12-16T22:29:06.022Z,98997.53
2022-12-16T22:30:56.812Z,99008.91
2022-12-16T22:32:47.397Z,98994.84
2022-12-16T22:34:38.274Z,99001.94
2022-12-16T22:36:31.067Z,99002.78
2022-12-16T22:38:23.721Z,99001.88
2022-12-16T22:40:14.121Z,99008.81
2022-12-16T22:42:07.119Z,99011.56
2022-12-16T22:43:57.642Z,99005.44
2022-12-16T22:45:48.005Z,99004.66
2022-12-16T22:47:39.119Z,99009.03
2022-12-16T22:49:29.688Z,99003.78
2022-12-16T22:51:20.310Z,98996.94
2022-12-16T22:53:10.723Z,98983.13
2022-12-16T22:55:03.091Z,98998.84
2022-12-16T22:56:53.512Z,98998.34
2022-12-16T22:58:47.045Z,99010.63
2022-12-16T23:00:37.693Z,98995.88
2022-12-16T23:02:28.456Z,99009.81
2022-12-16T23:04:19.609Z,99003.78
2022-12-16T23:06:10.382Z,99015.28
2022-12-16T23:08:00.904Z,99017.22
2022-12-16T23:09:53.243Z,99012.00
2022-12-16T23:11:52.366Z,99002.34
2022-12-16T23:13:44.550Z,98997.09
2022-12-16T23:15:35.501Z,99012.84
2022-12-16T23:17:26.250Z,99009.28
2022-12-16T23:19:31.370Z,99017.88
2022-12-16T23:21:21.162Z,99032.78
2022-12-16T23:23:12.956Z,99031.06
2022-12-16T23:25:03.382Z,99019.91
2022-12-16T23:26:55.367Z,99013.94
2022-12-16T23:28:46.875Z,99024.41
2022-12-16T23:30:37.816Z,99019.16
2022-12-16T23:32:27.724Z,99006.88
2022-12-16T23:34:18.324Z,99001.63
2022-12-16T23:36:09.217Z,99007.00
2022-12-16T23:38:00.381Z,99010.41
2022-12-16T23:39:51.247Z,99023.50
2022-12-16T23:41:42.235Z,99012.97
2022-12-16T23:43:34.034Z,99023.41
2022-12-16T23:45:37.079Z,99019.84
2022-12-16T23:47:39.298Z,99015.38
2022-12-16T23:49:30.045Z,99025.06
2022-12-16T23:51:20.608Z,99012.06
2022-12-16T23:53:21.000Z,99019.03
2022-12-16T23:55:11.617Z,99016.59
2022-12-16T23:57:02.050Z,99027.72
2022-12-16T23:58:53.992Z,99017.66
